Time;durP1;ratioP1;P1;durP2;ratioP2;P2;SDS_P1;SDS_P2;PMS_P1;PMS_P2;Temp;Humidity;BMP_temperature;BMP_pressure;BME280_temperature;BME280_humidity;BME280_pressure;Samples;Min_cycle;Max_cycle;Signal;HPM_P1;HPM_P2
2022/07/26 00:00:58;;;;;;;21.50;19.67;;;;;;;-144.27;100.00;69759.91;2057700;28;20480;-77
2022/07/26 00:02:01;;;;;;;21.57;19.63;;;;;;;-144.27;100.00;69759.91;2058334;28;20198;-77
2022/07/26 00:03:04;;;;;;;21.87;19.77;;;;;;;-144.27;100.00;69759.91;2057736;28;20443;-78
2022/07/26 00:04:06;;;;;;;25.73;19.93;;;;;;;-144.27;100.00;69759.91;2057734;28;20456;-77
2022/07/26 00:05:09;;;;;;;22.47;20.27;;;;;;;-144.27;100.00;69759.91;2058289;28;20444;-77
2022/07/26 00:06:09;;;;;;;22.30;20.20;;;;;;;-144.27;100.00;69759.91;2057737;28;20436;-77
2022/07/26 00:07:11;;;;;;;22.07;19.87;;;;;;;-144.27;100.00;69759.91;2058437;28;20435;-77
2022/07/26 00:08:12;;;;;;;24.97;20.33;;;;;;;-144.27;100.00;69759.91;2057344;28;20202;-78
2022/07/26 00:09:15;;;;;;;21.93;19.93;;;;;;;-144.27;100.00;69759.91;2057431;28;20532;-77
2022/07/26 00:10:17;;;;;;;24.20;20.13;;;;;;;-144.27;100.00;69759.91;2057599;28;20831;-77
2022/07/26 00:11:19;;;;;;;21.20;19.13;;;;;;;-144.27;100.00;69759.91;2057812;28;20524;-77
2022/07/26 00:12:21;;;;;;;22.10;19.83;;;;;;;-144.27;100.00;69759.91;2057624;28;20198;-78
2022/07/26 00:13:21;;;;;;;23.90;20.70;;;;;;;-144.27;100.00;69759.91;2057650;28;20952;-77
2022/07/26 00:14:24;;;;;;;21.60;19.67;;;;;;;-144.27;100.00;69759.91;2058328;28;20787;-77
2022/07/26 00:15:26;;;;;;;21.43;19.33;;;;;;;-144.27;100.00;69759.91;2056549;28;20345;-78
2022/07/26 00:16:28;;;;;;;21.53;19.60;;;;;;;-144.27;100.00;69759.91;2057278;28;20512;-78
2022/07/26 00:17:29;;;;;;;21.90;19.90;;;;;;;-144.27;100.00;69759.91;2057516;28;20429;-77
2022/07/26 00:18:30;;;;;;;22.60;20.47;;;;;;;-144.27;100.00;69759.91;2058334;28;20439;-78
2022/07/26 00:19:32;;;;;;;23.93;20.03;;;;;;;-144.27;100.00;69759.91;2058080;28;20213;-77
2022/07/26 00:20:34;;;;;;;24.83;20.37;;;;;;;-144.27;100.00;69759.91;2058155;28;20777;-77
2022/07/26 00:21:36;;;;;;;22.00;19.83;;;;;;;-144.27;100.00;69759.91;2057050;28;20481;-78
2022/07/26 00:22:40;;;;;;;21.07;19.27;;;;;;;-144.27;100.00;69759.91;2057597;28;20425;-77
2022/07/26 00:23:41;;;;;;;22.10;19.87;;;;;;;-144.27;100.00;69759.91;2058283;28;20433;-78
2022/07/26 00:24:43;;;;;;;21.43;19.37;;;;;;;-144.27;100.00;69759.91;2057435;28;20536;-77
2022/07/26 00:25:44;;;;;;;21.40;19.50;;;;;;;-144.27;100.00;69759.91;2057453;28;20657;-77
2022/07/26 00:26:46;;;;;;;22.33;19.90;;;;;;;-144.27;100.00;69759.91;2057564;28;20540;-77
2022/07/26 00:27:46;;;;;;;22.13;20.10;;;;;;;-144.27;100.00;69759.91;2065635;28;20486;-76
2022/07/26 00:28:48;;;;;;;22.73;19.40;;;;;;;-144.27;100.00;69759.91;2058110;28;20492;-76
2022/07/26 00:29:50;;;;;;;21.30;19.37;;;;;;;-144.27;100.00;69759.91;2057398;28;20197;-76
2022/07/26 00:30:54;;;;;;;21.53;19.53;;;;;;;-144.27;100.00;69759.91;2057757;28;20442;-77
2022/07/26 00:31:55;;;;;;;21.33;19.43;;;;;;;-144.27;100.00;69759.91;2065521;28;20782;-77
2022/07/26 00:32:56;;;;;;;21.27;19.53;;;;;;;-144.27;100.00;69759.91;2058094;28;20532;-76
2022/07/26 00:33:57;;;;;;;20.90;19.13;;;;;;;-144.27;100.00;69759.91;2057993;28;20229;-78
2022/07/26 00:35:00;;;;;;;21.13;19.43;;;;;;;-144.27;100.00;69759.91;2058141;28;20432;-76
2022/07/26 00:36:02;;;;;;;20.70;18.83;;;;;;;-144.27;100.00;69759.91;2056818;28;20221;-76
2022/07/26 00:37:04;;;;;;;20.53;18.80;;;;;;;-144.27;100.00;69759.91;2057477;28;20908;-77
2022/07/26 00:38:04;;;;;;;20.70;18.70;;;;;;;-144.27;100.00;69759.91;2057370;28;20445;-76
2022/07/26 00:39:06;;;;;;;20.57;18.87;;;;;;;-144.27;100.00;69759.91;2057343;28;20851;-76
2022/07/26 00:40:08;;;;;;;21.43;19.53;;;;;;;-144.27;100.00;69759.91;2056205;28;20685;-76
2022/07/26 00:41:09;;;;;;;21.63;19.53;;;;;;;-144.27;100.00;69759.91;2057314;28;20448;-76
2022/07/26 00:42:13;;;;;;;21.87;19.67;;;;;;;-144.27;100.00;69759.91;2057362;28;20440;-76
2022/07/26 00:43:17;;;;;;;20.77;18.83;;;;;;;-144.27;100.00;69759.91;2056914;28;20452;-76
2022/07/26 00:44:18;;;;;;;21.53;19.63;;;;;;;-144.27;100.00;69759.91;2057659;28;20436;-76
2022/07/26 00:45:21;;;;;;;20.77;18.77;;;;;;;-144.27;100.00;69759.91;2056977;28;20528;-76
2022/07/26 00:46:22;;;;;;;21.70;19.50;;;;;;;-144.27;100.00;69759.91;2057363;28;20198;-77
2022/07/26 00:47:24;;;;;;;20.50;18.80;;;;;;;-144.27;100.00;69759.91;2057305;28;20528;-77
2022/07/26 00:48:24;;;;;;;21.33;19.23;;;;;;;-144.27;100.00;69759.91;2050002;28;20233;-77
2022/07/26 00:49:27;;;;;;;20.57;18.83;;;;;;;-144.27;100.00;69759.91;2057295;28;20794;-77
2022/07/26 00:50:29;;;;;;;21.60;19.60;;;;;;;-144.27;100.00;69759.91;2057864;28;20209;-77
2022/07/26 00:51:31;;;;;;;21.00;19.10;;;;;;;-144.27;100.00;69759.91;2057089;28;21029;-76
2022/07/26 00:52:31;;;;;;;20.97;19.23;;;;;;;-144.27;100.00;69759.91;2058250;28;20451;-77
2022/07/26 00:53:33;;;;;;;21.80;20.07;;;;;;;-144.27;100.00;69759.91;2058458;28;20948;-76
2022/07/26 00:54:35;;;;;;;21.73;19.77;;;;;;;-144.27;100.00;69759.91;2058104;28;20228;-76
2022/07/26 00:55:36;;;;;;;21.17;19.37;;;;;;;-144.27;100.00;69759.91;2058366;28;20816;-76
2022/07/26 00:56:38;;;;;;;21.30;19.60;;;;;;;-144.27;100.00;69759.91;2057229;28;20551;-77
2022/07/26 00:57:41;;;;;;;21.77;19.80;;;;;;;-144.27;100.00;69759.91;2057497;28;20429;-76
2022/07/26 00:58:42;;;;;;;22.07;20.07;;;;;;;-144.27;100.00;69759.91;2058465;28;20437;-76
2022/07/26 00:59:43;;;;;;;21.43;19.53;;;;;;;-144.27;100.00;69759.91;2058095;28;20970;-76
2022/07/26 01:00:44;;;;;;;21.23;19.37;;;;;;;-144.27;100.00;69759.91;2058009;28;20671;-76
2022/07/26 01:01:45;;;;;;;20.93;19.23;;;;;;;-144.27;100.00;69759.91;2057437;28;20917;-76
2022/07/26 01:02:48;;;;;;;20.80;18.90;;;;;;;-144.27;100.00;69759.91;2057249;28;20225;-76
2022/07/26 01:03:53;;;;;;;21.50;19.50;;;;;;;-144.27;100.00;69759.91;2049915;28;20949;-76
2022/07/26 01:04:54;;;;;;;20.97;19.10;;;;;;;-144.27;100.00;69759.91;2057452;28;20468;-77
2022/07/26 01:05:57;;;;;;;22.13;20.13;;;;;;;-144.27;100.00;69759.91;2064968;28;20428;-76
2022/07/26 01:06:57;;;;;;;21.47;19.53;;;;;;;-144.27;100.00;69759.91;2057929;28;20212;-76
2022/07/26 01:07:59;;;;;;;24.03;19.90;;;;;;;-144.27;100.00;69759.91;2058060;28;20437;-76
2022/07/26 01:09:00;;;;;;;22.07;20.00;;;;;;;-144.27;100.00;69759.91;2058163;28;20600;-77
2022/07/26 01:10:02;;;;;;;21.77;19.90;;;;;;;-144.27;100.00;69759.91;2057197;28;20830;-77
2022/07/26 01:11:03;;;;;;;21.43;19.27;;;;;;;-144.27;100.00;69759.91;2049237;28;20202;-77
2022/07/26 01:12:05;;;;;;;20.90;19.10;;;;;;;-144.27;100.00;69759.91;2057183;28;20441;-77
2022/07/26 01:13:06;;;;;;;21.60;19.60;;;;;;;-144.27;100.00;69759.91;2057279;28;20453;-78
2022/07/26 01:14:07;;;;;;;21.43;19.50;;;;;;;-144.27;100.00;69759.91;2057196;28;20521;-77
2022/07/26 01:15:10;;;;;;;24.60;19.37;;;;;;;-144.27;100.00;69759.91;2057103;28;20236;-78
2022/07/26 01:16:11;;;;;;;21.63;19.70;;;;;;;-144.27;100.00;69759.91;2049364;28;20449;-77
2022/07/26 01:17:13;;;;;;;21.13;19.13;;;;;;;-144.27;100.00;69759.91;2057220;28;20479;-77
2022/07/26 01:18:16;;;;;;;20.83;18.63;;;;;;;-144.27;100.00;69759.91;2057322;28;20441;-76
2022/07/26 01:19:18;;;;;;;21.00;19.10;;;;;;;-144.27;100.00;69759.91;2057160;28;20457;-77
2022/07/26 01:20:19;;;;;;;20.90;19.20;;;;;;;-144.27;100.00;69759.91;2057127;28;20520;-76
2022/07/26 01:21:21;;;;;;;21.03;19.03;;;;;;;-144.27;100.00;69759.91;2048771;28;20792;-76
2022/07/26 01:22:24;;;;;;;20.67;18.87;;;;;;;-144.27;100.00;69759.91;2057392;28;20438;-76
2022/07/26 01:23:25;;;;;;;21.30;19.30;;;;;;;-144.27;100.00;69759.91;2057152;28;20456;-77
2022/07/26 01:24:28;;;;;;;21.30;19.40;;;;;;;-144.27;100.00;69759.91;2057331;28;20435;-77
2022/07/26 01:25:30;;;;;;;20.67;18.57;;;;;;;-144.27;100.00;69759.91;2057068;28;20536;-76
2022/07/26 01:26:32;;;;;;;21.57;19.30;;;;;;;-144.27;100.00;69759.91;2057108;28;20536;-77
2022/07/26 01:27:38;;;;;;;20.33;18.40;;;;;;;-144.27;100.00;69759.91;2057133;28;20477;-77
2022/07/26 01:28:39;;;;;;;20.97;18.90;;;;;;;-144.27;100.00;69759.91;2057215;28;20532;-77
2022/07/26 01:29:41;;;;;;;19.47;17.87;;;;;;;-144.27;100.00;69759.91;2057089;28;20544;-77
2022/07/26 01:30:41;;;;;;;20.73;18.57;;;;;;;-144.27;100.00;69759.91;2057181;28;20519;-77
2022/07/26 01:31:45;;;;;;;20.40;18.53;;;;;;;-144.27;100.00;69759.91;2057097;28;20951;-77
2022/07/26 01:32:46;;;;;;;20.47;18.57;;;;;;;-144.27;100.00;69759.91;2057112;28;20197;-77
2022/07/26 01:33:48;;;;;;;20.33;18.47;;;;;;;-144.27;100.00;69759.91;2057107;28;20445;-77
2022/07/26 01:34:49;;;;;;;20.47;18.57;;;;;;;-144.27;100.00;69759.91;2065116;28;20220;-77
2022/07/26 01:35:51;;;;;;;20.03;18.17;;;;;;;-144.27;100.00;69759.91;2057761;28;20431;-77
2022/07/26 01:36:53;;;;;;;20.40;18.43;;;;;;;-144.27;100.00;69759.91;2056693;28;20232;-76
2022/07/26 01:37:57;;;;;;;19.50;17.90;;;;;;;-144.27;100.00;69759.91;2057295;28;20445;-77
2022/07/26 01:39:00;;;;;;;20.20;18.47;;;;;;;-144.27;100.00;69759.91;2057063;28;20519;-77
2022/07/26 01:40:02;;;;;;;21.30;19.30;;;;;;;-144.27;100.00;69759.91;2057369;28;20468;-77
2022/07/26 01:41:03;;;;;;;20.27;18.37;;;;;;;-144.27;100.00;69759.91;2057721;28;20437;-77
2022/07/26 01:42:05;;;;;;;20.47;18.63;;;;;;;-144.27;100.00;69759.91;2057117;28;20429;-77
2022/07/26 01:43:05;;;;;;;20.17;18.37;;;;;;;-144.27;100.00;69759.91;2057502;28;20224;-77
2022/07/26 01:44:07;;;;;;;20.13;18.00;;;;;;;-144.27;100.00;69759.91;2057101;28;20444;-78
2022/07/26 01:45:10;;;;;;;20.47;18.50;;;;;;;-144.27;100.00;69759.91;2058460;28;20213;-77
2022/07/26 01:46:13;;;;;;;19.90;18.00;;;;;;;-144.27;100.00;69759.91;2057052;28;20476;-77
2022/07/26 01:47:14;;;;;;;19.33;17.63;;;;;;;-144.27;100.00;69759.91;2056997;28;20474;-77
2022/07/26 01:48:16;;;;;;;20.50;18.70;;;;;;;-144.27;100.00;69759.91;2057761;28;20489;-77
2022/07/26 01:49:16;;;;;;;19.83;17.93;;;;;;;-144.27;100.00;69759.91;2057240;28;20284;-77
2022/07/26 01:50:18;;;;;;;20.47;18.47;;;;;;;-144.27;100.00;69759.91;2058428;28;20911;-77
2022/07/26 01:51:19;;;;;;;20.03;18.00;;;;;;;-144.27;100.00;69759.91;2058531;28;20680;-77
2022/07/26 01:52:23;;;;;;;20.57;18.67;;;;;;;-144.27;100.00;69759.91;2058490;28;20524;-77
2022/07/26 01:53:25;;;;;;;19.83;18.10;;;;;;;-144.27;100.00;69759.91;2058508;28;20524;-78
2022/07/26 01:54:27;;;;;;;20.33;18.50;;;;;;;-144.27;100.00;69759.91;2059484;28;20428;-78
2022/07/26 01:55:28;;;;;;;21.63;18.53;;;;;;;-144.27;100.00;69759.91;2058643;28;20459;-77
2022/07/26 01:56:29;;;;;;;20.57;18.67;;;;;;;-144.27;100.00;69759.91;2058784;28;20431;-78
2022/07/26 01:57:30;;;;;;;19.87;18.17;;;;;;;-144.27;100.00;69759.91;2066676;28;20695;-76
2022/07/26 01:58:34;;;;;;;20.60;18.57;;;;;;;-144.27;100.00;69759.91;2066686;28;20782;-77
2022/07/26 01:59:36;;;;;;;19.77;17.97;;;;;;;-144.27;100.00;69759.91;2059293;28;20190;-76
2022/07/26 02:00:38;;;;;;;20.33;18.70;;;;;;;-144.27;100.00;69759.91;2059327;28;20473;-76
2022/07/26 02:01:39;;;;;;;19.60;17.67;;;;;;;-144.27;100.00;69759.91;2058469;28;20452;-76
2022/07/26 02:02:40;;;;;;;21.10;19.30;;;;;;;-144.27;100.00;69759.91;2058502;28;20436;-77
2022/07/26 02:03:41;;;;;;;31.63;18.97;;;;;;;-144.27;100.00;69759.91;2058477;28;20236;-77
2022/07/26 02:04:58;;;;;;;19.90;18.20;;;;;;;-144.27;100.00;69759.91;2058496;28;20445;-77
2022/07/26 02:05:59;;;;;;;20.07;17.90;;;;;;;-144.27;100.00;69759.91;2058327;28;20625;-77
2022/07/26 02:07:02;;;;;;;19.27;17.47;;;;;;;-144.27;100.00;69759.91;2059410;28;20833;-76
2022/07/26 02:08:04;;;;;;;19.37;17.57;;;;;;;-144.27;100.00;69759.91;2059109;28;20244;-77
2022/07/26 02:09:06;;;;;;;20.40;18.60;;;;;;;-144.27;100.00;69759.91;2059228;28;20935;-77
2022/07/26 02:10:09;;;;;;;20.87;18.83;;;;;;;-144.27;100.00;69759.91;2059459;28;20833;-77
2022/07/26 02:11:10;;;;;;;20.90;18.40;;;;;;;-144.27;100.00;69759.91;2059215;28;20428;-77
2022/07/26 02:12:11;;;;;;;20.40;18.40;;;;;;;-144.27;100.00;69759.91;2058488;28;20441;-77
2022/07/26 02:13:12;;;;;;;20.53;18.53;;;;;;;-144.27;100.00;69759.91;2058388;28;20209;-76
2022/07/26 02:14:14;;;;;;;20.60;18.73;;;;;;;-144.27;100.00;69759.91;2058618;28;20432;-77
2022/07/26 02:15:15;;;;;;;19.60;18.00;;;;;;;-144.27;100.00;69759.91;2058372;28;20229;-77
2022/07/26 02:16:17;;;;;;;20.13;18.33;;;;;;;-144.27;100.00;69759.91;2050276;28;21116;-76
2022/07/26 02:17:17;;;;;;;20.40;18.20;;;;;;;-144.27;100.00;69759.91;2058525;28;20213;-77
2022/07/26 02:18:19;;;;;;;18.90;17.20;;;;;;;-144.27;100.00;69759.91;2058446;28;20464;-77
2022/07/26 02:19:20;;;;;;;19.03;17.33;;;;;;;-144.27;100.00;69759.91;2058371;28;20568;-77
2022/07/26 02:20:23;;;;;;;19.27;17.33;;;;;;;-144.27;100.00;69759.91;2058438;28;20473;-77
2022/07/26 02:21:24;;;;;;;19.77;18.03;;;;;;;-144.27;100.00;69759.91;2058765;28;20688;-77
2022/07/26 02:22:26;;;;;;;20.40;18.37;;;;;;;-144.27;100.00;69759.91;2058446;28;20818;-77
2022/07/26 02:23:27;;;;;;;23.97;18.30;;;;;;;-144.27;100.00;69759.91;2058454;28;20692;-77
2022/07/26 02:24:31;;;;;;;20.47;18.33;;;;;;;-144.27;100.00;69759.91;2058347;28;20484;-77
2022/07/26 02:25:32;;;;;;;19.67;17.63;;;;;;;-144.27;100.00;69759.91;2058432;28;20445;-77
2022/07/26 02:26:34;;;;;;;19.23;17.23;;;;;;;-144.27;100.00;69759.91;2058404;28;20433;-77
2022/07/26 02:27:36;;;;;;;19.07;17.50;;;;;;;-144.27;100.00;69759.91;2058334;28;20194;-78
2022/07/26 02:28:38;;;;;;;19.40;17.70;;;;;;;-144.27;100.00;69759.91;2058422;28;20422;-77
2022/07/26 02:29:40;;;;;;;18.73;17.00;;;;;;;-144.27;100.00;69759.91;2059072;28;20436;-76
2022/07/26 02:30:41;;;;;;;19.43;17.47;;;;;;;-144.27;100.00;69759.91;2058983;28;20452;-77
2022/07/26 02:31:42;;;;;;;20.23;18.13;;;;;;;-144.27;100.00;69759.91;2059140;28;20204;-76
2022/07/26 02:32:44;;;;;;;19.87;18.03;;;;;;;-144.27;100.00;69759.91;2058253;28;20441;-76
2022/07/26 02:33:46;;;;;;;18.03;16.53;;;;;;;-144.27;100.00;69759.91;2050290;28;20282;-76
2022/07/26 02:34:48;;;;;;;18.43;17.03;;;;;;;-144.27;100.00;69759.91;2058544;28;20417;-76
2022/07/26 02:35:52;;;;;;;18.27;16.57;;;;;;;-144.27;100.00;69759.91;2058338;28;20463;-76
2022/07/26 02:36:53;;;;;;;18.50;16.70;;;;;;;-144.27;100.00;69759.91;2050246;28;20888;-76
2022/07/26 02:37:54;;;;;;;18.97;17.30;;;;;;;-144.27;100.00;69759.91;2050476;28;20438;-76
2022/07/26 02:38:56;;;;;;;18.27;16.60;;;;;;;-144.27;100.00;69759.91;2058278;28;20536;-76
2022/07/26 02:39:58;;;;;;;18.30;16.63;;;;;;;-144.27;100.00;69759.91;2058360;28;20201;-76
2022/07/26 02:41:00;;;;;;;18.60;16.80;;;;;;;-144.27;100.00;69759.91;2066231;28;20475;-76
2022/07/26 02:42:03;;;;;;;17.70;16.30;;;;;;;-144.27;100.00;69759.91;2058952;28;20429;-76
2022/07/26 02:43:05;;;;;;;19.03;17.40;;;;;;;-144.27;100.00;69759.91;2058332;28;20448;-76
2022/07/26 02:44:07;;;;;;;19.07;17.27;;;;;;;-144.27;100.00;69759.91;2058316;28;20441;-76
2022/07/26 02:45:09;;;;;;;19.27;17.30;;;;;;;-144.27;100.00;69759.91;2058297;28;20437;-77
2022/07/26 02:46:10;;;;;;;17.50;16.20;;;;;;;-144.27;100.00;69759.91;2058265;28;20840;-77
2022/07/26 02:47:12;;;;;;;17.73;16.07;;;;;;;-144.27;100.00;69759.91;2058201;28;20519;-78
2022/07/26 02:48:13;;;;;;;17.53;16.00;;;;;;;-144.27;100.00;69759.91;2050369;28;20194;-77
2022/07/26 02:49:17;;;;;;;17.33;16.03;;;;;;;-144.27;100.00;69759.91;2058377;28;20439;-76
2022/07/26 02:50:19;;;;;;;19.27;17.20;;;;;;;-144.27;100.00;69759.91;2058920;28;20429;-76
2022/07/26 02:51:21;;;;;;;18.53;16.70;;;;;;;-144.27;100.00;69759.91;2057738;28;20928;-77
2022/07/26 02:52:21;;;;;;;19.13;17.20;;;;;;;-144.27;100.00;69759.91;2058443;28;20433;-76
2022/07/26 02:53:23;;;;;;;19.03;17.10;;;;;;;-144.27;100.00;69759.91;2058179;28;20465;-77
2022/07/26 02:54:24;;;;;;;18.57;16.63;;;;;;;-144.27;100.00;69759.91;2058126;28;20296;-77
2022/07/26 02:55:28;;;;;;;18.37;16.80;;;;;;;-144.27;100.00;69759.91;2058322;28;20425;-77
2022/07/26 02:56:29;;;;;;;18.63;17.03;;;;;;;-144.27;100.00;69759.91;2058124;28;20197;-77
2022/07/26 02:57:31;;;;;;;19.10;17.27;;;;;;;-144.27;100.00;69759.91;2058156;28;20480;-76
2022/07/26 02:58:31;;;;;;;18.77;17.07;;;;;;;-144.27;100.00;69759.91;2058864;28;20221;-77
2022/07/26 02:59:33;;;;;;;17.97;16.47;;;;;;;-144.27;100.00;69759.91;2058773;28;20436;-76
2022/07/26 03:00:35;;;;;;;17.90;16.40;;;;;;;-144.27;100.00;69759.91;2058845;28;20206;-76
2022/07/26 03:01:39;;;;;;;17.00;15.50;;;;;;;-144.27;100.00;69759.91;2058701;28;20433;-76
2022/07/26 03:02:48;;;;;;;16.53;15.17;;;;;;;-144.27;100.00;69759.91;2057083;28;20515;-77
2022/07/26 03:03:52;;;;;;;17.53;15.93;;;;;;;-144.27;100.00;69759.91;2058102;28;20432;-77
2022/07/26 03:04:53;;;;;;;18.63;16.77;;;;;;;-144.27;100.00;69759.91;2058154;28;20811;-76
2022/07/26 03:05:55;;;;;;;17.03;15.53;;;;;;;-144.27;100.00;69759.91;2058373;28;20429;-77
2022/07/26 03:06:55;;;;;;;18.80;16.80;;;;;;;-144.27;100.00;69759.91;2058084;28;20635;-77
2022/07/26 03:07:57;;;;;;;16.83;15.53;;;;;;;-144.27;100.00;69759.91;2058243;28;20504;-77
2022/07/26 03:09:00;;;;;;;17.63;15.93;;;;;;;-144.27;100.00;69759.91;2058062;28;20206;-77
2022/07/26 03:10:02;;;;;;;17.73;15.97;;;;;;;-144.27;100.00;69759.91;2058056;28;20441;-77
2022/07/26 03:11:06;;;;;;;18.37;16.37;;;;;;;-144.27;100.00;69759.91;2058067;28;20840;-77
2022/07/26 03:12:07;;;;;;;17.80;16.30;;;;;;;-144.27;100.00;69759.91;2058106;28;20792;-77
2022/07/26 03:13:09;;;;;;;17.17;15.57;;;;;;;-144.27;100.00;69759.91;2058002;28;20508;-77
2022/07/26 03:14:09;;;;;;;17.57;15.90;;;;;;;-144.27;100.00;69759.91;2058293;28;20198;-77
2022/07/26 03:15:11;;;;;;;17.07;15.50;;;;;;;-144.27;100.00;69759.91;2058662;28;20492;-77
2022/07/26 03:16:12;;;;;;;16.53;15.10;;;;;;;-144.27;100.00;69759.91;2057830;28;20213;-77
2022/07/26 03:17:14;;;;;;;16.40;15.20;;;;;;;-144.27;100.00;69759.91;2050042;28;20552;-78
2022/07/26 03:18:15;;;;;;;17.40;15.70;;;;;;;-144.27;100.00;69759.91;2058040;28;20201;-78
2022/07/26 03:19:17;;;;;;;16.60;15.33;;;;;;;-144.27;100.00;69759.91;2058034;28;20444;-77
2022/07/26 03:20:17;;;;;;;19.23;17.30;;;;;;;-144.27;100.00;69759.91;2057826;28;20229;-77
2022/07/26 03:21:19;;;;;;;17.80;16.30;;;;;;;-144.27;100.00;69759.91;2057949;28;20472;-78
2022/07/26 03:22:21;;;;;;;17.60;16.07;;;;;;;-144.27;100.00;69759.91;2058566;28;20198;-78
2022/07/26 03:23:22;;;;;;;18.03;16.63;;;;;;;-144.27;100.00;69759.91;2058110;28;20441;-78
2022/07/26 03:24:23;;;;;;;17.77;16.07;;;;;;;-144.27;100.00;69759.91;2057995;28;20967;-77
2022/07/26 03:25:25;;;;;;;18.30;16.20;;;;;;;-144.27;100.00;69759.91;2057839;28;20785;-77
2022/07/26 03:26:28;;;;;;;17.20;15.70;;;;;;;-144.27;100.00;69759.91;2057910;28;20204;-77
2022/07/26 03:27:29;;;;;;;17.87;16.17;;;;;;;-144.27;100.00;69759.91;2057846;28;20457;-77
2022/07/26 03:28:32;;;;;;;18.17;16.50;;;;;;;-144.27;100.00;69759.91;2057935;28;20437;-77
2022/07/26 03:29:36;;;;;;;18.37;16.83;;;;;;;-144.27;100.00;69759.91;2058507;28;20425;-77
2022/07/26 03:30:37;;;;;;;17.53;16.17;;;;;;;-144.27;100.00;69759.91;2058499;28;20924;-77
2022/07/26 03:31:39;;;;;;;17.93;16.53;;;;;;;-144.27;100.00;69759.91;2057950;28;20947;-77
2022/07/26 03:32:39;;;;;;;18.00;16.40;;;;;;;-144.27;100.00;69759.91;2057884;28;20288;-78
2022/07/26 03:33:41;;;;;;;18.27;16.70;;;;;;;-144.27;100.00;69759.91;2057776;28;20488;-77
2022/07/26 03:34:42;;;;;;;18.23;16.33;;;;;;;-144.27;100.00;69759.91;2057814;28;20197;-77
2022/07/26 03:35:44;;;;;;;17.47;16.07;;;;;;;-144.27;100.00;69759.91;2057755;28;20459;-77
2022/07/26 03:36:49;;;;;;;18.20;16.40;;;;;;;-144.27;100.00;69759.91;2049528;28;20230;-77
2022/07/26 03:37:50;;;;;;;17.80;16.20;;;;;;;-144.27;100.00;69759.91;2057909;28;20995;-77
2022/07/26 03:38:52;;;;;;;18.27;16.63;;;;;;;-144.27;100.00;69759.91;2057748;28;20898;-77
2022/07/26 03:39:54;;;;;;;18.97;17.27;;;;;;;-144.27;100.00;69759.91;2057866;28;20238;-77
2022/07/26 03:40:56;;;;;;;19.30;17.20;;;;;;;-144.27;100.00;69759.91;2057662;28;20469;-77
2022/07/26 03:41:59;;;;;;;18.10;16.37;;;;;;;-144.27;100.00;69759.91;2057776;28;20540;-77
2022/07/26 03:43:02;;;;;;;17.40;16.00;;;;;;;-144.27;100.00;69759.91;2057713;28;20441;-77
2022/07/26 03:44:04;;;;;;;18.57;16.70;;;;;;;-144.27;100.00;69759.91;2050039;28;20992;-76
2022/07/26 03:45:06;;;;;;;18.57;16.97;;;;;;;-144.27;100.00;69759.91;2057721;28;20448;-76
2022/07/26 03:46:07;;;;;;;18.40;16.80;;;;;;;-144.27;100.00;69759.91;2057762;28;20459;-76
2022/07/26 03:47:09;;;;;;;18.77;16.97;;;;;;;-144.27;100.00;69759.91;2057822;28;20435;-76
2022/07/26 03:48:10;;;;;;;19.10;17.23;;;;;;;-144.27;100.00;69759.91;2057684;28;20628;-76
2022/07/26 03:49:12;;;;;;;18.77;16.80;;;;;;;-144.27;100.00;69759.91;2057831;28;20425;-76
2022/07/26 03:50:15;;;;;;;19.23;17.43;;;;;;;-144.27;100.00;69759.91;2057720;28;20190;-76
2022/07/26 03:51:17;;;;;;;18.60;17.00;;;;;;;-144.27;100.00;69759.91;2057336;28;20544;-76
2022/07/26 03:52:18;;;;;;;18.07;16.57;;;;;;;-144.27;100.00;69759.91;2057721;28;20453;-78
2022/07/26 03:53:20;;;;;;;18.23;16.40;;;;;;;-144.27;100.00;69759.91;2057755;28;20433;-77
2022/07/26 03:54:21;;;;;;;17.33;15.87;;;;;;;-144.27;100.00;69759.91;2065724;28;20201;-77
2022/07/26 03:56:44;;;;;;;18.77;17.10;;;;;;;-144.27;100.00;69759.91;2058102;28;20402;-77
2022/07/26 03:57:47;;;;;;;19.77;18.27;;;;;;;-144.27;100.00;69759.91;2057596;28;20455;-78
2022/07/26 03:58:48;;;;;;;19.90;18.17;;;;;;;-144.27;100.00;69759.91;2057917;28;20476;-77
2022/07/26 03:59:49;;;;;;;20.57;18.53;;;;;;;-144.27;100.00;69759.91;2057249;28;20984;-77
2022/07/26 04:00:51;;;;;;;20.17;18.27;;;;;;;-144.27;100.00;69759.91;2057606;28;20862;-77
2022/07/26 04:01:52;;;;;;;20.13;17.97;;;;;;;-144.27;100.00;69759.91;2058570;28;20551;-77
2022/07/26 04:02:55;;;;;;;22.43;17.80;;;;;;;-144.27;100.00;69759.91;2057607;28;20449;-78
2022/07/26 04:03:58;;;;;;;20.43;18.37;;;;;;;-144.27;100.00;69759.91;2057837;28;20436;-77
2022/07/26 04:04:58;;;;;;;20.13;18.10;;;;;;;-144.27;100.00;69759.91;2057571;28;20449;-77
2022/07/26 04:06:01;;;;;;;22.37;18.27;;;;;;;-144.27;100.00;69759.91;2057036;28;20440;-78
2022/07/26 04:07:01;;;;;;;20.50;17.90;;;;;;;-144.27;100.00;69759.91;2056956;28;20198;-77
2022/07/26 04:08:03;;;;;;;19.73;18.03;;;;;;;-144.27;100.00;69759.91;2057538;28;20441;-78
2022/07/26 04:09:05;;;;;;;19.30;17.60;;;;;;;-144.27;100.00;69759.91;2057863;28;20193;-78
2022/07/26 04:10:08;;;;;;;18.63;17.13;;;;;;;-144.27;100.00;69759.91;2058223;28;20504;-78
2022/07/26 04:11:11;;;;;;;20.03;18.03;;;;;;;-144.27;100.00;69759.91;2058196;28;20436;-78
2022/07/26 04:12:12;;;;;;;19.37;17.80;;;;;;;-144.27;100.00;69759.91;2058421;28;20440;-77
2022/07/26 04:13:15;;;;;;;20.80;18.10;;;;;;;-144.27;100.00;69759.91;2058224;28;20480;-78
2022/07/26 04:14:16;;;;;;;20.87;18.23;;;;;;;-144.27;100.00;69759.91;2056919;28;20272;-77
2022/07/26 04:15:17;;;;;;;20.57;18.67;;;;;;;-144.27;100.00;69759.91;2057076;28;20484;-77
2022/07/26 04:16:19;;;;;;;17.50;15.93;;;;;;;-144.27;100.00;69759.91;2057408;28;20983;-77
2022/07/26 04:17:20;;;;;;;18.23;16.13;;;;;;;-144.27;100.00;69759.91;2057513;28;20492;-77
2022/07/26 04:18:22;;;;;;;18.00;16.30;;;;;;;-144.27;100.00;69759.91;2057712;28;20433;-77
2022/07/26 04:19:23;;;;;;;18.23;16.67;;;;;;;-144.27;100.00;69759.91;2057489;28;20205;-77
2022/07/26 04:20:24;;;;;;;17.97;16.40;;;;;;;-144.27;100.00;69759.91;2057590;28;20433;-78
2022/07/26 04:21:25;;;;;;;18.60;16.70;;;;;;;-144.27;100.00;69759.91;2057704;28;20815;-77
2022/07/26 04:22:27;;;;;;;18.53;16.93;;;;;;;-144.27;100.00;69759.91;2058139;28;20859;-76
2022/07/26 04:23:27;;;;;;;18.93;17.00;;;;;;;-144.27;100.00;69759.91;2057439;28;20696;-76
2022/07/26 04:24:29;;;;;;;18.73;17.03;;;;;;;-144.27;100.00;69759.91;2049506;29;20844;-76
2022/07/26 04:25:30;;;;;;;18.53;16.40;;;;;;;-144.27;100.00;69759.91;2049431;28;20206;-77
2022/07/26 04:26:31;;;;;;;18.53;16.60;;;;;;;-144.27;100.00;69759.91;2057426;28;20429;-76
2022/07/26 04:27:33;;;;;;;18.00;16.43;;;;;;;-144.27;100.00;69759.91;2065548;28;20576;-76
2022/07/26 04:28:36;;;;;;;18.33;16.50;;;;;;;-144.27;100.00;69759.91;2058040;28;20440;-76
2022/07/26 04:29:36;;;;;;;18.40;16.80;;;;;;;-144.27;100.00;69759.91;2058152;28;20792;-76
2022/07/26 04:30:38;;;;;;;17.13;15.73;;;;;;;-144.27;100.00;69759.91;2057373;28;20437;-76
2022/07/26 04:31:39;;;;;;;18.87;16.87;;;;;;;-144.27;100.00;69759.91;2057500;28;20233;-78
2022/07/26 04:32:41;;;;;;;18.60;16.97;;;;;;;-144.27;100.00;69759.91;2057488;28;20496;-76
2022/07/26 04:33:42;;;;;;;17.50;16.10;;;;;;;-144.27;100.00;69759.91;2057486;28;20226;-77
2022/07/26 04:34:43;;;;;;;24.57;16.83;;;;;;;-144.27;100.00;69759.91;2058091;28;20429;-77
2022/07/26 04:35:44;;;;;;;20.17;15.90;;;;;;;-144.27;100.00;69759.91;2058125;28;20289;-77
2022/07/26 04:36:45;;;;;;;18.43;16.50;;;;;;;-144.27;100.00;69759.91;2056986;28;20465;-78